Burlington, Wisconsin
Current Conditions -  °F | °C
As of 6:15 AM on Friday 24 Oct 2014 (Local Time) from KBUU Reporting Station
Haze Haze  
Wind Chill: 46°   Ceiling: 500
Heat Index: 48°   Visibility: 4mi
Dew Point: 48°   Wind: 5mph
Humidity: 99%   Direction: 300°WNW
Pressure: 30.05"   Gusts: NA
Location:  42.68°N, 88.28°W
Report Text: KBUU 241115Z AUTO 30004KT 4SM BR OVC005 09/09 A3005 RMK AO2 T00900088
Loading
Personal Weather Stations






























Interactive Weather Map
Tropical Storm Tracking
New forecast layout! Learn more

10-Day Weather Forecast

Advertisements
Track Severe Weather on mobile